AirNav   Bose Proflight Series 2 Wireless Aviation Headset
 
 880 users online  

PA49 Mountain Bay Air Park Inc
Greentown, Pennsylvania, USA

GOING TO GREENTOWN?


FAA INFORMATION EFFECTIVE 07 NOVEMBER 2019

Location

FAA Identifier: PA49
Lat/Long: 41-22-48.3220N 075-13-56.6400W
41-22.805367N 075-13.944000W
41.3800894,-75.2324000
(estimated)
Elevation: 1500 ft. / 457 m (estimated)
Variation: 12W (1985)
From city: 9 miles SW of GREENTOWN, PA
Time zone: UTC -5 (UTC -4 during Daylight Saving Time)
Zip code: 18426

Airport Operations

Airport use: Private use. Permission required prior to landing
Activation date: 11/1990
Control tower: no
ARTCC: NEW YORK CENTER
FSS: WILLIAMSPORT FLIGHT SERVICE STATION
Attendance: ON CALL
Wind indicator: lighted
Segmented circle: no
Lights: ACTVT MIRL RWY 11/29 - 122.7.
Beacon: white-green (lighted land airport)
ACTVT ROTG BCN - 122.7.
Landing fee: yes

Airport Communications

UNICOM: 122.7
WX ASOS at MPO (16 nm SW): 120.275 (570-839-1584)

Nearby radio navigation aids

VOR radial/distance  VOR name  Freq  Var
LVZr083/21.6WILKES-BARRE VORTAC111.6010W
STWr336/28.3STILLWATER VOR/DME109.6011W
HUOr277/28.9HUGUENOT VOR/DME116.1011W
SAXr312/36.5SPARTA VORTAC115.7011W
BWZr343/39.5BROADWAY VOR/DME114.2011W

Airport Services

Fuel available: 100LL 80

Runway Information

Runway 12/30

Dimensions: 2230 x 55 ft. / 680 x 17 m
Surface: asphalt
RUNWAY 12  RUNWAY 30
Traffic pattern: leftleft

Airport Ownership and Management from official FAA records

Ownership: Privately-owned
Owner: MOUNTAIN BAY AIRPARK INC
100 PONDEROSA CT
GREENTOWN, PA 18426
Phone 570-857-2611
Manager: MIKE BONVENTRE
100 PONDEROSA CT
GREENTOWN, PA 18426
Phone 570-857-2611
215-450-0231.

Airport Operational Statistics

Aircraft based on the field: 4
Single engine airplanes: 4
    

Additional Remarks

TFC PAT ALT 800 FT MSL.
PRIOR APPROVAL REQUIRED FOR LNDG.
RY 11 THLD NOT LIGHTED.
FOR CD CTC WILKES-BARRE APCH AT 570-655-2084.

Instrument Procedures

There are no published instrument procedures at PA49.

Some nearby airports with instrument procedures:

N30 - Cherry Ridge Airport (8 nm N)
70N - Spring Hill Airport (8 nm W)
KMPO - Pocono Mountains Municipal Airport (16 nm SW)
N53 - Stroudsburg-Pocono Airport (21 nm S)
KAVP - Wilkes-Barre/Scranton International Airport (22 nm W)
 
Loc | Ops | Rwys | IFR | FBO | Links
Com | Nav | Svcs | Stats | Notes
Area around PA49 (Mountain Bay Air Park Inc)
 
Road maps at: MapQuest Bing Google
 
Aerial photo
No photo
 
Sectional chart

 
Airport distance calculator
Flying to Mountain Bay Air Park Inc? Find the distance to fly.

From to PA49

Sunrise and sunset
Times for 20-Nov-2019
 Local
(UTC-5)
 Zulu
(UTC)
Morning civil twilight06:2611:26
Sunrise06:5611:56
Sunset16:3721:37
Evening civil twilight17:0722:07

Current date and time
Zulu (UTC)  21-Nov-2019 04:14:00
Local (UTC-5)  20-Nov-2019 23:14:00
 
METAR
KMPO 
16nm SW 
210353Z AUTO 32021G30KT 8SM OVC008 02/01 A3007 RMK AO2 PK WND 32033/0324 SLP199 T00170011 $
KAVP 
23nm W 
210354Z 35006KT 7SM OVC018 06/01 A3015 RMK AO2 SLP214 T00560011
KMSV 
28nm NE 
210356Z AUTO 31008KT 10SM OVC020 01/M02 A3011 RMK AO2 SLP209 T00111022 FZRANO
KFWN 
29nm E 
210353Z AUTO 03005KT 10SM FEW031 SCT070 04/M02 A3012 RMK AO2 SLP200 T00441017 $
K12N 
31nm SE 
210354Z AUTO VRB05KT 05/M01 A3012 RMK AO1 SLP204 T00501006
TAF
KAVP 
23nm W 
210109Z 2101/2124 33009KT P6SM OVC015 TEMPO 2102/2103 5SM BR FM210900 33004KT P6SM OVC025 FM211400 VRB06KT P6SM BKN050 FM211800 20003KT P6SM SCT160
NOTAMs
Click for the latest NOTAMs
NOTAMs are issued by the DoD/FAA and will open in a separate window not controlled by AirNav.

 

 
 

Would you like to see your business listed on this page?

 If your business provides an interesting product or service to pilots, flight crews, aircraft, or users of the Mountain Bay Air Park Inc, you should consider listing it here.  To start the listing process, click on the button below
 
Add a business
 

Other Pages about Mountain Bay Air Park Inc

mountainbayairpark.com
 
Update a link
 
Copyright © AirNav, LLC. All rights reserved. Privacy Policy  Contact